aviador You're here:

KCCY Decoded Metar

CHARLES CITY in IA, USA
Report Time2018-02-25 11:15:00
UTC Time2018-02-25 11:25:26
Flight Rules mvfr MVFR
Wind260° at 15 Gusting to 21 kt
W.Decomp.*RWY 22: 12.0 kt HW 9.0 kt RCW
RWY 30: 11.0 kt HW 10.2 kt LCW
RWY 18: 3.4 kt HW 14.6 kt RCW
W.Rank260° ranks 26
Current wind is above 260° avg. (8.3)
Visibility9999 m
Phenomena:N/A
Clouds:Overcast 010 Hf
Ceiling1,000 ft
Temp-7°C (ISA -20)
Dew Point-7°C (100% RH)
AAT-15.2°C
QNH1007 hPa
Density Alt-1,063 ft
Elevation1,125 ft
Report Wrong Elevation
Raw Report
METAR KCCY 251115Z AUTO 26015G21KT 10SM OVC010 M07/M07 A2973 RMK AO2=

Extra information for KCCY:More info

Metar Taf Metar & Taf Last 4 Metars F.Rules Stats Wind Profile Meteogram Temp Stats Airport Information Weather charts Add Link Nearby VenuesMetar ALERT Operation Metar Decoded Social comments

AIRNAV info for KCCY